Pagrindinis puslapis
METAR-TAF:

METAR-TAF

Oro uostai :

Lima, Peru

platuma: 12-00S, ilguma: 077-07W, Aukštis: 12 m

Dabartinis oras

Ataskaita buvo paskelbta 27 minutes, ne 23:00 UTC
Vėjas 12 kt iš Pietų
Temperatūra 18°C
Drėgmė 83%
Slėgis 1013 hPa
Matomumas: 7000 m
Su prošvaistėmis ne aukštis 600 ft

METAR: SPJC 282300Z 17012KT 7000 BKN006 18/15 Q1013 NOSIG RMK PP000

Laikas: 18:27 (23:27 UTC)

Prognozė

Ataskaita buvo paskelbta 6 valandos ir 27 minutes, ne 17:00 UTC
Prognozė galioja nuo 28 metu 18 UTC su 29 metu 18 UTC
Vėjas 12 kt iš Pietų
Matomumas 10 km arba daugiau
nėra debesų žemiau 1500 m ir nėra kamuolinių lietaus debesų
Tapsmas
nuo 29 metu 06 UTC su 29 metu 09 UTC
Vėjas 6 kt iš Pietų/Pietryčių
Nuo 29 metu 1100 UTC
Vėjas 6 kt iš Pietvakarių
Matomumas: 8000 m
Tapsmas
nuo 29 metu 13 UTC su 29 metu 17 UTC
Vėjas 12 kt iš Pietų
Matomumas 10 km arba daugiau
nėra debesų žemiau 1500 m ir nėra kamuolinių lietaus debesų

TAF: SPJC 281700Z 2818/2918 18012KT CAVOK TX23/2819Z TN16/2911Z BECMG 2906/2909 16006KT FM291100 23006KT 8000 NSC BECMG 2913/2917 18012KT CAVOK

Orai ataskaitas ir orų prognozės (METAR, TAF).

turimą stotys yra geltonos ir raudonos taškus žemėlapyje.

Perkelti pele per norėdami pamatyti stoties vardą.

Tada spustelėkite, norėdami matyti oro stebėjimo ir prognozės.

Norėdami pakeisti žemėlapį: spustelėkite ant žalios mygtukų su juodo kryžiaus žemyn,; žalią mygtuką su brūkšneliu, jei norite nutolinti; arba žalių rodyklių gretimoms žemėlapius.


METAR-TAF: